Time;durP1;ratioP1;P1;durP2;ratioP2;P2;SDS_P1;SDS_P2;PMS_P1;PMS_P2;Temp;Humidity;BMP_temperature;BMP_pressure;BME280_temperature;BME280_humidity;BME280_pressure;Samples;Min_cycle;Max_cycle;Signal;HPM_P1;HPM_P2
2022/05/16 00:02:15;;;;;;;6.25;4.97;;;;;;;;;;5034657;28;20125;-41
2022/05/16 00:04:44;;;;;;;5.03;4.40;;;;;;;;;;5034961;28;20088;-42
2022/05/16 00:07:10;;;;;;;9.75;4.80;;;;;;;;;;5035269;28;20415;-41
2022/05/16 00:09:35;;;;;;;6.32;4.32;;;;;;;;;;5035169;28;20021;-43
2022/05/16 00:12:02;;;;;;;6.90;4.93;;;;;;;;;;5034778;28;20480;-42
2022/05/16 00:14:28;;;;;;;13.65;5.63;;;;;;;;;;5029531;28;20033;-44
2022/05/16 00:16:54;;;;;;;5.63;4.97;;;;;;;;;;5033605;28;20121;-41
2022/05/16 00:19:20;;;;;;;8.85;4.45;;;;;;;;;;5034647;28;20041;-42
2022/05/16 00:21:45;;;;;;;14.38;5.05;;;;;;;;;;5034761;28;20056;-42
2022/05/16 00:24:11;;;;;;;6.05;4.55;;;;;;;;;;5034723;28;20044;-42
2022/05/16 00:26:36;;;;;;;9.15;4.75;;;;;;;;;;5034872;28;20480;-44
2022/05/16 00:29:02;;;;;;;7.75;4.65;;;;;;;;;;5033984;28;20077;-39
2022/05/16 00:31:27;;;;;;;12.98;4.35;;;;;;;;;;5034028;28;20121;-40
2022/05/16 00:33:53;;;;;;;6.68;5.85;;;;;;;;;;5033236;28;20025;-40
2022/05/16 00:36:18;;;;;;;7.70;5.10;;;;;;;;;;5033246;28;20411;-40
2022/05/16 00:38:43;;;;;;;4.90;4.07;;;;;;;;;;5033168;28;20454;-39
2022/05/16 00:41:09;;;;;;;6.95;4.05;;;;;;;;;;5033800;28;20021;-39
2022/05/16 00:43:55;;;;;;;13.43;3.97;;;;;;;;;;5033873;28;20033;-39
2022/05/16 00:46:21;;;;;;;5.00;4.10;;;;;;;;;;5034341;28;20025;-39
2022/05/16 00:48:47;;;;;;;8.25;4.53;;;;;;;;;;5033426;28;20369;-40
2022/05/16 00:51:21;;;;;;;12.60;5.90;;;;;;;;;;5032512;28;20032;-39
2022/05/16 00:53:49;;;;;;;8.20;5.25;;;;;;;;;;5032234;28;20029;-39
2022/05/16 00:56:15;;;;;;;6.15;4.75;;;;;;;;;;5030757;28;20035;-41
2022/05/16 00:58:42;;;;;;;9.65;4.68;;;;;;;;;;5031944;28;20533;-39
2022/05/16 01:04:47;;;;;;;8.70;4.20;;;;;;;;;;5032153;28;20110;-40
2022/05/16 01:06:40;;;;;;;7.45;4.45;;;;;;;;;;5033992;28;20152;-42
2022/05/16 01:09:07;;;;;;;14.95;5.80;;;;;;;;;;5034122;28;20104;-42
2022/05/16 01:11:35;;;;;;;13.18;5.72;;;;;;;;;;5033964;28;20077;-41
2022/05/16 01:14:00;;;;;;;9.27;6.70;;;;;;;;;;5033592;28;20476;-42
2022/05/16 01:16:27;;;;;;;7.55;5.00;;;;;;;;;;5033995;28;20029;-44
2022/05/16 01:18:52;;;;;;;9.80;4.85;;;;;;;;;;5033586;28;20108;-41
2022/05/16 01:21:37;;;;;;;7.95;4.90;;;;;;;;;;5033484;28;20140;-42
2022/05/16 01:24:18;;;;;;;10.50;4.78;;;;;;;;;;5033172;28;20025;-43
2022/05/16 01:26:44;;;;;;;9.40;5.20;;;;;;;;;;5032117;28;20026;-41
2022/05/16 01:29:10;;;;;;;7.30;4.78;;;;;;;;;;5031709;28;20033;-42
2022/05/16 01:31:36;;;;;;;9.50;5.38;;;;;;;;;;5031606;28;20481;-42
2022/05/16 01:34:02;;;;;;;8.27;5.30;;;;;;;;;;5031599;28;20021;-43
2022/05/16 01:36:28;;;;;;;8.60;5.47;;;;;;;;;;5031604;28;20079;-42
2022/05/16 01:38:54;;;;;;;6.93;5.28;;;;;;;;;;5031637;28;20041;-42
2022/05/16 01:41:22;;;;;;;10.93;5.70;;;;;;;;;;5031403;28;20095;-42
2022/05/16 01:43:55;;;;;;;14.90;5.57;;;;;;;;;;5031461;28;20072;-42
2022/05/16 01:46:34;;;;;;;7.28;5.15;;;;;;;;;;5031460;28;20033;-42
2022/05/16 01:48:59;;;;;;;8.85;5.60;;;;;;;;;;5032320;28;20029;-42
2022/05/16 01:51:25;;;;;;;7.80;5.38;;;;;;;;;;5032140;28;20103;-42
2022/05/16 01:53:52;;;;;;;9.25;5.35;;;;;;;;;;5033343;28;20032;-43
2022/05/16 01:56:18;;;;;;;8.98;5.55;;;;;;;;;;5033070;28;20028;-43
2022/05/16 01:58:44;;;;;;;9.43;5.38;;;;;;;;;;5032777;28;20469;-43
2022/05/16 02:01:10;;;;;;;7.90;5.47;;;;;;;;;;5033130;28;20032;-42
2022/05/16 02:03:45;;;;;;;8.55;5.00;;;;;;;;;;5032696;28;20512;-43
2022/05/16 02:06:11;;;;;;;6.38;4.45;;;;;;;;;;5033029;28;20037;-43
2022/05/16 02:08:37;;;;;;;6.78;4.90;;;;;;;;;;5032820;28;20384;-41
2022/05/16 02:11:04;;;;;;;8.27;4.68;;;;;;;;;;5032878;28;20076;-42
2022/05/16 02:13:30;;;;;;;8.48;4.85;;;;;;;;;;5032716;28;20393;-42
2022/05/16 02:15:55;;;;;;;16.48;5.50;;;;;;;;;;5032933;28;20484;-42
2022/05/16 02:18:22;;;;;;;8.93;5.15;;;;;;;;;;5032698;28;20033;-42
2022/05/16 02:20:47;;;;;;;11.98;6.10;;;;;;;;;;5032534;28;20492;-42
2022/05/16 02:25:57;;;;;;;10.23;5.25;;;;;;;;;;5032828;28;20389;-43
2022/05/16 02:28:23;;;;;;;13.65;5.57;;;;;;;;;;5032506;28;20025;-42
2022/05/16 02:30:48;;;;;;;18.48;5.88;;;;;;;;;;5032686;28;20022;-42
2022/05/16 02:33:16;;;;;;;11.45;5.93;;;;;;;;;;5032724;28;20519;-42
2022/05/16 02:35:43;;;;;;;11.65;5.57;;;;;;;;;;5032286;28;20018;-42
2022/05/16 02:38:09;;;;;;;11.25;5.13;;;;;;;;;;5032576;28;20101;-43
2022/05/16 02:40:36;;;;;;;9.90;5.88;;;;;;;;;;5032290;28;20056;-42
2022/05/16 02:43:03;;;;;;;12.05;6.00;;;;;;;;;;5032565;28;20029;-44
2022/05/16 02:45:30;;;;;;;13.27;6.03;;;;;;;;;;5032256;28;20461;-43
2022/05/16 02:47:56;;;;;;;19.73;5.97;;;;;;;;;;5032577;28;20075;-42
2022/05/16 02:50:23;;;;;;;13.45;5.97;;;;;;;;;;5032567;28;20053;-43
2022/05/16 02:52:53;;;;;;;11.15;5.13;;;;;;;;;;5032596;28;20036;-42
2022/05/16 02:55:19;;;;;;;15.05;5.57;;;;;;;;;;5032518;28;20056;-41
2022/05/16 02:57:45;;;;;;;16.63;5.57;;;;;;;;;;5032326;28;20091;-43
2022/05/16 03:00:12;;;;;;;9.57;5.15;;;;;;;;;;5032128;28;20540;-42
2022/05/16 03:02:39;;;;;;;17.15;5.35;;;;;;;;;;5032121;28;20076;-43
2022/05/16 03:05:06;;;;;;;10.02;6.13;;;;;;;;;;5032249;28;20029;-43
2022/05/16 03:07:32;;;;;;;12.05;5.63;;;;;;;;;;5032148;28;20029;-42
2022/05/16 03:09:57;;;;;;;10.35;6.30;;;;;;;;;;5032140;28;20045;-42
2022/05/16 03:12:22;;;;;;;9.93;5.70;;;;;;;;;;5032503;28;20030;-42
2022/05/16 03:14:48;;;;;;;13.45;6.43;;;;;;;;;;5032387;28;20408;-41
2022/05/16 03:17:13;;;;;;;16.35;5.95;;;;;;;;;;5032146;28;20431;-41
2022/05/16 03:19:39;;;;;;;10.02;5.03;;;;;;;;;;5032302;28;20025;-42
2022/05/16 03:22:06;;;;;;;13.02;5.43;;;;;;;;;;5031940;28;20469;-41
2022/05/16 03:24:32;;;;;;;10.55;5.10;;;;;;;;;;5032307;28;20087;-41
2022/05/16 03:26:58;;;;;;;12.05;5.32;;;;;;;;;;5014401;28;20037;-42
2022/05/16 03:29:24;;;;;;;19.02;5.50;;;;;;;;;;5031984;28;20037;-41
2022/05/16 03:31:50;;;;;;;14.98;5.68;;;;;;;;;;5032262;28;20025;-41
2022/05/16 03:34:15;;;;;;;11.50;5.78;;;;;;;;;;5032270;28;20053;-41
2022/05/16 03:36:41;;;;;;;13.82;5.68;;;;;;;;;;5031814;28;20497;-43
2022/05/16 03:41:52;;;;;;;20.17;6.65;;;;;;;;;;5032135;28;20506;-42
2022/05/16 03:44:19;;;;;;;9.57;5.95;;;;;;;;;;5032152;28;20036;-43
2022/05/16 03:46:44;;;;;;;10.70;5.82;;;;;;;;;;5033120;28;20473;-41
2022/05/16 03:49:10;;;;;;;11.73;5.75;;;;;;;;;;5035666;28;20067;-43
2022/05/16 03:51:36;;;;;;;12.30;6.40;;;;;;;;;;5035419;28;20385;-41
2022/05/16 03:54:03;;;;;;;14.43;6.18;;;;;;;;;;5035522;28;20037;-41
2022/05/16 03:56:28;;;;;;;9.25;5.93;;;;;;;;;;5035493;28;20033;-41
2022/05/16 03:58:55;;;;;;;7.70;5.13;;;;;;;;;;5035441;28;20025;-42
2022/05/16 04:01:21;;;;;;;10.82;5.70;;;;;;;;;;5035034;28;20033;-41
2022/05/16 04:03:47;;;;;;;8.18;5.80;;;;;;;;;;5034933;28;20556;-42
2022/05/16 04:06:17;;;;;;;13.50;5.22;;;;;;;;;;5035137;28;20167;-41
2022/05/16 04:08:43;;;;;;;15.30;5.35;;;;;;;;;;5035404;28;20096;-41
2022/05/16 04:11:10;;;;;;;11.68;5.47;;;;;;;;;;5035337;28;20072;-41
2022/05/16 04:13:36;;;;;;;12.82;5.82;;;;;;;;;;5034934;28;20026;-41
2022/05/16 04:16:02;;;;;;;8.82;5.15;;;;;;;;;;5035215;28;20033;-41
2022/05/16 04:18:28;;;;;;;8.82;5.10;;;;;;;;;;5034868;28;20032;-41
2022/05/16 04:20:53;;;;;;;8.10;4.93;;;;;;;;;;5034730;28;20021;-41
2022/05/16 04:23:19;;;;;;;7.63;5.13;;;;;;;;;;5034849;28;20029;-41
2022/05/16 04:25:46;;;;;;;8.60;5.57;;;;;;;;;;5034991;28;20034;-42
2022/05/16 04:28:12;;;;;;;10.05;5.25;;;;;;;;;;5034708;28;20091;-42
2022/05/16 04:30:38;;;;;;;16.17;5.50;;;;;;;;;;5034988;28;20021;-41
2022/05/16 04:33:05;;;;;;;10.02;5.10;;;;;;;;;;5034577;28;20112;-42
2022/05/16 04:35:31;;;;;;;12.38;5.38;;;;;;;;;;5034552;28;20516;-42
2022/05/16 04:37:57;;;;;;;7.00;5.18;;;;;;;;;;5034543;28;20037;-42
2022/05/16 04:40:23;;;;;;;15.88;5.93;;;;;;;;;;5034373;28;20037;-42
2022/05/16 04:42:48;;;;;;;7.88;5.15;;;;;;;;;;5034480;28;20478;-41
2022/05/16 04:45:21;;;;;;;9.32;4.90;;;;;;;;;;5034657;28;20071;-42
2022/05/16 04:47:49;;;;;;;10.18;4.85;;;;;;;;;;5034696;28;20033;-41
2022/05/16 04:50:17;;;;;;;6.47;4.70;;;;;;;;;;5034673;28;20025;-41
2022/05/16 04:52:42;;;;;;;9.52;4.80;;;;;;;;;;5034322;28;20491;-41
2022/05/16 04:55:09;;;;;;;7.55;4.88;;;;;;;;;;5034471;28;20025;-41
2022/05/16 04:57:34;;;;;;;8.40;4.57;;;;;;;;;;5033402;28;20029;-42
2022/05/16 05:00:00;;;;;;;8.75;4.85;;;;;;;;;;5033891;28;20040;-42
2022/05/16 05:02:26;;;;;;;12.73;4.40;;;;;;;;;;5034083;28;20049;-42
2022/05/16 05:04:51;;;;;;;9.63;3.00;;;;;;;;;;5034007;28;20539;-42
2022/05/16 05:07:17;;;;;;;6.10;3.78;;;;;;;;;;5033928;28;20111;-43
2022/05/16 05:15:16;;;;;;;5.40;3.92;;;;;;;;;;5033793;28;20096;-42
2022/05/16 05:17:41;;;;;;;4.30;3.50;;;;;;;;;;5033649;28;20033;-42
2022/05/16 05:20:13;;;;;;;3.97;2.70;;;;;;;;;;5033839;28;20040;-42
2022/05/16 05:22:43;;;;;;;5.68;2.95;;;;;;;;;;5033629;28;20021;-42
2022/05/16 05:25:15;;;;;;;3.80;2.70;;;;;;;;;;5033885;28;20034;-42
2022/05/16 05:27:42;;;;;;;3.15;2.25;;;;;;;;;;5033429;28;20026;-41
2022/05/16 05:30:10;;;;;;;23.13;3.47;;;;;;;;;;5033411;28;20029;-41
2022/05/16 05:32:36;;;;;;;5.13;2.15;;;;;;;;;;5033664;28;20060;-42
2022/05/16 05:35:03;;;;;;;3.22;2.65;;;;;;;;;;5033420;28;20516;-43
2022/05/16 05:37:29;;;;;;;5.60;2.65;;;;;;;;;;5033659;28;20104;-41
2022/05/16 05:39:58;;;;;;;6.28;2.15;;;;;;;;;;5033494;28;20444;-44
2022/05/16 05:42:24;;;;;;;10.25;2.42;;;;;;;;;;5033273;28;20025;-42
2022/05/16 05:44:50;;;;;;;3.47;2.72;;;;;;;;;;5033088;28;20064;-43
2022/05/16 05:47:15;;;;;;;5.65;3.13;;;;;;;;;;5033221;28;20065;-44
2022/05/16 05:49:41;;;;;;;5.05;2.38;;;;;;;;;;5033339;28;20112;-43
2022/05/16 05:52:06;;;;;;;4.78;3.13;;;;;;;;;;5033116;28;20094;-44
2022/05/16 05:54:32;;;;;;;7.22;2.80;;;;;;;;;;5033253;28;20036;-44
2022/05/16 05:56:57;;;;;;;4.70;2.58;;;;;;;;;;5033292;28;20053;-45
2022/05/16 05:59:23;;;;;;;5.65;2.97;;;;;;;;;;5033224;28;20509;-46
2022/05/16 06:01:49;;;;;;;5.65;2.72;;;;;;;;;;5032736;28;20033;-44
2022/05/16 06:04:15;;;;;;;7.30;3.88;;;;;;;;;;5033151;28;20099;-47
2022/05/16 06:06:42;;;;;;;9.02;4.20;;;;;;;;;;5033019;28;20366;-41
2022/05/16 06:09:08;;;;;;;10.55;4.25;;;;;;;;;;5031694;28;20052;-47
2022/05/16 06:11:33;;;;;;;6.32;4.10;;;;;;;;;;5031913;28;20509;-45
2022/05/16 06:13:58;;;;;;;5.95;3.95;;;;;;;;;;5032077;28;20021;-44
2022/05/16 06:16:24;;;;;;;6.95;3.72;;;;;;;;;;5031960;28;20032;-44
2022/05/16 06:18:49;;;;;;;12.95;3.58;;;;;;;;;;5032035;28;20030;-42
2022/05/16 06:21:15;;;;;;;6.43;3.75;;;;;;;;;;5031708;28;20041;-43
2022/05/16 06:23:41;;;;;;;7.93;3.42;;;;;;;;;;5032333;28;20033;-44
2022/05/16 06:26:06;;;;;;;4.30;3.72;;;;;;;;;;5032439;28;20056;-46
2022/05/16 06:28:37;;;;;;;6.35;4.15;;;;;;;;;;5032676;28;20398;-48
2022/05/16 06:31:03;;;;;;;6.10;3.25;;;;;;;;;;5032738;28;20026;-45
2022/05/16 06:33:29;;;;;;;6.90;3.58;;;;;;;;;;5032489;28;20095;-42
2022/05/16 06:35:55;;;;;;;3.22;2.85;;;;;;;;;;5014801;28;20473;-43
2022/05/16 06:38:23;;;;;;;7.60;3.92;;;;;;;;;;5032683;28;20087;-41
2022/05/16 06:40:49;;;;;;;7.28;3.40;;;;;;;;;;5032336;28;20033;-42
2022/05/16 06:43:17;;;;;;;7.95;3.88;;;;;;;;;;5032234;28;20507;-42
2022/05/16 06:45:43;;;;;;;7.72;3.50;;;;;;;;;;5032427;28;20057;-42
2022/05/16 06:48:09;;;;;;;5.60;3.50;;;;;;;;;;5032144;28;20057;-42
2022/05/16 06:50:35;;;;;;;6.45;3.72;;;;;;;;;;5032045;28;20476;-44
2022/05/16 06:53:03;;;;;;;10.07;3.55;;;;;;;;;;5032053;28;20053;-41
2022/05/16 06:55:29;;;;;;;8.18;3.45;;;;;;;;;;5032179;28;20080;-43
2022/05/16 06:57:55;;;;;;;6.53;3.38;;;;;;;;;;5032386;28;20025;-41
2022/05/16 07:00:21;;;;;;;10.13;3.30;;;;;;;;;;5032005;28;20500;-44
2022/05/16 07:02:46;;;;;;;5.07;3.20;;;;;;;;;;5031942;28;20054;-46
2022/05/16 07:05:13;;;;;;;7.47;3.65;;;;;;;;;;5014424;28;20033;-45
2022/05/16 07:07:38;;;;;;;9.43;3.80;;;;;;;;;;5032133;28;20025;-43
2022/05/16 07:10:05;;;;;;;7.35;3.22;;;;;;;;;;5032097;28;20366;-41
2022/05/16 07:12:31;;;;;;;4.13;3.47;;;;;;;;;;5014270;28;20112;-42
2022/05/16 07:14:56;;;;;;;6.35;3.50;;;;;;;;;;5032307;28;20100;-42
2022/05/16 07:17:22;;;;;;;4.38;2.92;;;;;;;;;;5032310;28;20465;-43
2022/05/16 07:19:49;;;;;;;7.00;3.20;;;;;;;;;;5031997;28;20025;-41
2022/05/16 07:22:17;;;;;;;5.63;3.08;;;;;;;;;;5034555;28;20040;-42
2022/05/16 07:24:43;;;;;;;7.60;3.15;;;;;;;;;;5036145;28;20079;-43
2022/05/16 07:29:54;;;;;;;3.97;3.40;;;;;;;;;;5036098;28;20416;-45
2022/05/16 07:32:20;;;;;;;4.40;3.35;;;;;;;;;;5035704;28;20026;-47
2022/05/16 07:34:46;;;;;;;15.23;3.60;;;;;;;;;;5035635;28;20123;-48
2022/05/16 07:37:11;;;;;;;5.80;3.30;;;;;;;;;;5035876;28;20244;-46
2022/05/16 07:39:38;;;;;;;3.42;2.60;;;;;;;;;;5035390;28;20122;-44
2022/05/16 07:42:07;;;;;;;3.58;3.00;;;;;;;;;;5035385;28;20033;-42
2022/05/16 07:44:36;;;;;;;9.02;2.85;;;;;;;;;;5035687;28;20083;-44
2022/05/16 07:47:02;;;;;;;7.82;2.65;;;;;;;;;;5035544;28;20057;-43
2022/05/16 07:49:27;;;;;;;5.53;2.67;;;;;;;;;;5035637;28;20025;-45
2022/05/16 07:51:52;;;;;;;3.20;2.28;;;;;;;;;;5035626;28;20432;-44
2022/05/16 07:54:18;;;;;;;5.68;2.20;;;;;;;;;;5017685;28;20092;-48
2022/05/16 07:56:43;;;;;;;2.55;2.22;;;;;;;;;;5017464;28;20025;-43
2022/05/16 07:59:09;;;;;;;2.97;2.30;;;;;;;;;;5035583;28;20029;-49
2022/05/16 08:01:36;;;;;;;3.85;2.33;;;;;;;;;;5017379;28;20029;-50
2022/05/16 08:04:02;;;;;;;3.83;2.35;;;;;;;;;;5035275;28;20090;-50
2022/05/16 08:06:28;;;;;;;4.63;2.13;;;;;;;;;;5035012;28;20087;-49
2022/05/16 08:11:39;;;;;;;5.53;2.83;;;;;;;;;;5035064;28;20032;-48
2022/05/16 08:14:04;;;;;;;7.40;3.40;;;;;;;;;;5035330;28;20030;-43
2022/05/16 08:16:30;;;;;;;10.43;2.70;;;;;;;;;;5034866;28;20033;-49
2022/05/16 08:18:55;;;;;;;3.65;2.20;;;;;;;;;;5034703;28;20079;-48
2022/05/16 08:21:21;;;;;;;7.10;2.40;;;;;;;;;;5034708;28;20029;-44
2022/05/16 08:23:46;;;;;;;8.70;3.08;;;;;;;;;;5034725;28;20025;-46
2022/05/16 08:26:12;;;;;;;4.93;2.42;;;;;;;;;;5034931;28;20109;-45
2022/05/16 08:28:39;;;;;;;5.65;2.30;;;;;;;;;;5034886;28;20018;-48
2022/05/16 08:31:05;;;;;;;2.92;2.30;;;;;;;;;;5034560;28;20053;-44
2022/05/16 08:33:32;;;;;;;4.68;2.40;;;;;;;;;;5034755;28;20095;-45
2022/05/16 08:41:33;;;;;;;4.63;2.00;;;;;;;;;;5034416;28;20040;-44
2022/05/16 08:44:11;;;;;;;8.30;2.05;;;;;;;;;;5034602;28;20030;-46
2022/05/16 08:46:46;;;;;;;2.83;2.00;;;;;;;;;;5034522;28;20116;-42
2022/05/16 08:49:29;;;;;;;7.25;2.33;;;;;;;;;;5016567;28;20551;-43
2022/05/16 08:52:03;;;;;;;6.97;2.55;;;;;;;;;;5033935;28;20038;-48
2022/05/16 08:54:31;;;;;;;3.38;2.00;;;;;;;;;;5034089;28;20036;-43
2022/05/16 08:57:01;;;;;;;3.47;2.30;;;;;;;;;;5034091;28;20035;-44
2022/05/16 08:59:30;;;;;;;6.60;2.38;;;;;;;;;;5034257;28;20030;-44
2022/05/16 09:02:04;;;;;;;2.60;2.05;;;;;;;;;;5033852;28;20048;-43
2022/05/16 09:04:46;;;;;;;4.72;2.25;;;;;;;;;;5033743;28;20033;-44
2022/05/16 09:07:29;;;;;;;3.38;2.00;;;;;;;;;;5034109;28;20029;-45
2022/05/16 09:10:06;;;;;;;2.65;1.90;;;;;;;;;;5034101;28;20043;-45
2022/05/16 09:12:41;;;;;;;5.75;2.08;;;;;;;;;;5033949;28;20385;-47
2022/05/16 09:15:38;;;;;;;5.30;3.47;;;;;;;;;;5033999;28;20033;-45
2022/05/16 09:18:24;;;;;;;4.50;2.47;;;;;;;;;;5033769;28;20030;-42
2022/05/16 09:21:24;;;;;;;3.40;2.17;;;;;;;;;;5033942;28;20124;-44
2022/05/16 09:23:58;;;;;;;3.80;2.15;;;;;;;;;;5019384;28;20041;-42
2022/05/16 09:26:29;;;;;;;5.22;2.45;;;;;;;;;;5031471;28;20111;-43
2022/05/16 09:29:09;;;;;;;3.78;2.28;;;;;;;;;;5030061;28;20041;-46
2022/05/16 09:31:43;;;;;;;2.90;2.20;;;;;;;;;;5030199;28;20118;-45
2022/05/16 09:34:09;;;;;;;3.28;2.20;;;;;;;;;;5029792;28;20481;-45
2022/05/16 09:36:40;;;;;;;6.75;2.80;;;;;;;;;;5030603;28;20672;-47
2022/05/16 09:39:08;;;;;;;6.18;2.33;;;;;;;;;;5031408;28;20044;-46
2022/05/16 09:41:34;;;;;;;6.15;2.28;;;;;;;;;;5031411;28;20033;-44
2022/05/16 09:44:26;;;;;;;2.83;2.40;;;;;;;;;;5032021;28;20025;-44
2022/05/16 09:47:17;;;;;;;7.25;3.15;;;;;;;;;;5032826;28;20033;-45
2022/05/16 09:49:42;;;;;;;3.55;2.45;;;;;;;;;;5032077;28;20021;-46
2022/05/16 09:52:20;;;;;;;7.15;2.45;;;;;;;;;;5033020;28;20462;-42
2022/05/16 09:54:59;;;;;;;4.63;2.75;;;;;;;;;;5033326;28;20036;-46
2022/05/16 09:57:25;;;;;;;;;;;;;;;;;;5033393;28;20068;-44
2022/05/16 09:59:55;;;;;;;2.20;1.90;;;;;;;;;;5033135;28;19987;-46
2022/05/16 10:02:23;;;;;;;9.50;2.15;;;;;;;;;;5032074;28;20096;-45
2022/05/16 10:04:55;;;;;;;3.42;2.53;;;;;;;;;;5015128;28;20025;-44
2022/05/16 10:07:43;;;;;;;5.20;1.95;;;;;;;;;;5033075;28;20072;-44
2022/05/16 10:10:32;;;;;;;2.80;2.22;;;;;;;;;;5032905;28;20429;-46
2022/05/16 10:12:57;;;;;;;2.95;1.95;;;;;;;;;;5014792;28;20087;-45
2022/05/16 10:15:24;;;;;;;3.88;2.40;;;;;;;;;;5032616;28;20026;-42
2022/05/16 10:17:52;;;;;;;4.22;2.00;;;;;;;;;;5032874;28;20053;-44
2022/05/16 10:20:39;;;;;;;6.03;2.40;;;;;;;;;;5032127;28;20033;-45
2022/05/16 10:23:21;;;;;;;2.53;1.83;;;;;;;;;;5032418;28;20274;-45
2022/05/16 10:25:49;;;;;;;5.22;2.42;;;;;;;;;;5032859;28;20045;-43
2022/05/16 10:28:21;;;;;;;7.63;2.38;;;;;;;;;;5032777;28;20100;-43
2022/05/16 10:33:34;;;;;;;2.65;2.33;;;;;;;;;;5017293;28;20031;-44
2022/05/16 10:36:08;;;;;;;4.30;2.13;;;;;;;;;;5032480;28;20108;-43
2022/05/16 10:38:40;;;;;;;4.22;2.35;;;;;;;;;;5032350;28;20026;-42
2022/05/16 10:41:15;;;;;;;3.90;2.22;;;;;;;;;;5032350;28;20040;-44
2022/05/16 10:43:56;;;;;;;2.97;2.20;;;;;;;;;;5032319;28;20481;-44
2022/05/16 10:46:31;;;;;;;2.72;2.20;;;;;;;;;;5032540;28;20052;-45
2022/05/16 10:49:05;;;;;;;5.35;2.25;;;;;;;;;;5032263;28;20481;-44
2022/05/16 10:51:54;;;;;;;5.00;2.30;;;;;;;;;;5032363;28;20025;-44
2022/05/16 10:54:22;;;;;;;5.45;2.33;;;;;;;;;;5032321;28;20021;-42
2022/05/16 10:57:15;;;;;;;21.05;3.03;;;;;;;;;;5034183;28;20389;-45
2022/05/16 11:00:06;;;;;;;2.88;2.15;;;;;;;;;;5036144;28;20053;-45
2022/05/16 11:02:46;;;;;;;2.80;2.17;;;;;;;;;;5018474;28;20049;-46
2022/05/16 11:05:39;;;;;;;7.68;2.22;;;;;;;;;;5034354;28;20037;-42
2022/05/16 11:08:29;;;;;;;2.75;2.10;;;;;;;;;;5034845;28;20060;-44
2022/05/16 11:11:10;;;;;;;4.93;3.10;;;;;;;;;;5034432;28;20469;-45
2022/05/16 11:13:41;;;;;;;4.85;2.25;;;;;;;;;;5034759;28;20030;-43
2022/05/16 11:16:31;;;;;;;5.55;3.88;;;;;;;;;;5017177;28;20029;-43
2022/05/16 11:19:18;;;;;;;7.95;3.45;;;;;;;;;;5034427;28;20033;-45
2022/05/16 11:22:07;;;;;;;5.95;2.90;;;;;;;;;;5034211;28;20473;-44
2022/05/16 11:24:50;;;;;;;9.68;2.45;;;;;;;;;;5034375;28;20056;-42
2022/05/16 11:27:23;;;;;;;3.75;2.20;;;;;;;;;;5034484;28;20036;-42
2022/05/16 11:30:07;;;;;;;32.10;4.28;;;;;;;;;;5034253;28;20397;-45
2022/05/16 11:32:39;;;;;;;6.80;2.50;;;;;;;;;;5035364;28;20048;-41
2022/05/16 11:35:12;;;;;;;2.38;2.17;;;;;;;;;;5035937;28;20030;-42
2022/05/16 11:37:56;;;;;;;2.75;1.73;;;;;;;;;;5035855;28;20025;-42
2022/05/16 11:40:27;;;;;;;2.75;1.90;;;;;;;;;;5017603;28;20132;-41
2022/05/16 11:42:59;;;;;;;2.60;1.80;;;;;;;;;;5017671;28;20030;-41
2022/05/16 11:46:04;;;;;;;7.68;2.08;;;;;;;;;;5035504;28;20026;-43
2022/05/16 11:49:07;;;;;;;2.20;2.00;;;;;;;;;;5035628;28;20034;-43
2022/05/16 11:52:01;;;;;;;3.88;2.15;;;;;;;;;;5035333;28;20033;-44
2022/05/16 11:54:31;;;;;;;3.05;2.00;;;;;;;;;;5035661;28;20045;-42
2022/05/16 12:02:28;;;;;;;3.17;1.95;;;;;;;;;;5034650;28;20456;-42
2022/05/16 12:05:07;;;;;;;2.78;2.03;;;;;;;;;;5035025;28;20095;-42
2022/05/16 12:07:35;;;;;;;4.57;2.07;;;;;;;;;;5034550;28;20088;-43
2022/05/16 12:10:10;;;;;;;7.72;4.03;;;;;;;;;;5034921;28;20753;-42
2022/05/16 12:12:46;;;;;;;3.50;2.63;;;;;;;;;;5035078;28;20025;-42
2022/05/16 12:15:20;;;;;;;4.60;2.17;;;;;;;;;;5034809;28;20036;-42
2022/05/16 12:17:49;;;;;;;5.22;2.22;;;;;;;;;;5034163;28;20366;-44
2022/05/16 12:20:15;;;;;;;4.93;2.20;;;;;;;;;;5035100;28;20061;-41
2022/05/16 12:22:41;;;;;;;2.50;2.20;;;;;;;;;;5034874;28;20049;-41
2022/05/16 12:25:11;;;;;;;5.00;2.70;;;;;;;;;;5033220;28;20034;-42
2022/05/16 12:27:44;;;;;;;6.00;3.97;;;;;;;;;;5033047;28;20038;-41
2022/05/16 12:30:34;;;;;;;6.15;3.97;;;;;;;;;;5033213;28;20034;-41
2022/05/16 12:33:01;;;;;;;3.38;2.60;;;;;;;;;;5032804;28;20017;-41
2022/05/16 12:35:27;;;;;;;3.85;3.00;;;;;;;;;;5033365;28;20037;-41
2022/05/16 12:37:53;;;;;;;4.25;2.75;;;;;;;;;;5032743;28;20029;-41
2022/05/16 12:40:33;;;;;;;3.75;2.63;;;;;;;;;;5033117;28;20040;-41
2022/05/16 12:43:31;;;;;;;6.35;3.58;;;;;;;;;;5032763;28;20469;-41
2022/05/16 12:46:37;;;;;;;6.10;2.78;;;;;;;;;;5032872;28;20431;-41
2022/05/16 12:49:12;;;;;;;5.30;2.47;;;;;;;;;;5002910;28;20033;-41
2022/05/16 12:51:45;;;;;;;5.05;2.47;;;;;;;;;;5032817;28;20037;-41
2022/05/16 12:54:35;;;;;;;6.10;2.42;;;;;;;;;;5014954;28;20381;-41
2022/05/16 12:57:25;;;;;;;4.40;2.60;;;;;;;;;;5033047;28;20033;-42
2022/05/16 12:59:56;;;;;;;27.52;3.45;;;;;;;;;;5032301;28;20033;-41
2022/05/16 13:02:31;;;;;;;3.90;2.55;;;;;;;;;;5032315;28;20125;-41
2022/05/16 13:05:12;;;;;;;8.57;2.85;;;;;;;;;;5032738;28;20068;-41
2022/05/16 13:07:51;;;;;;;11.98;3.92;;;;;;;;;;5032427;28;20030;-41
2022/05/16 13:10:51;;;;;;;8.45;4.45;;;;;;;;;;5032654;28;20393;-40
2022/05/16 13:13:27;;;;;;;6.22;4.30;;;;;;;;;;5032281;28;20465;-40
2022/05/16 13:16:23;;;;;;;6.30;4.20;;;;;;;;;;5032318;28;20483;-42
2022/05/16 13:18:55;;;;;;;6.82;4.55;;;;;;;;;;5031235;28;20037;-40
2022/05/16 13:21:21;;;;;;;12.57;6.05;;;;;;;;;;5031895;28;20116;-40
2022/05/16 13:23:49;;;;;;;9.07;4.50;;;;;;;;;;5031961;28;20473;-40
2022/05/16 13:31:48;;;;;;;21.08;7.70;;;;;;;;;;5032267;28;20208;-40
2022/05/16 13:34:35;;;;;;;11.27;6.50;;;;;;;;;;5032191;28;20032;-41
2022/05/16 13:37:06;;;;;;;12.65;6.07;;;;;;;;;;5031698;28;20029;-41
2022/05/16 13:39:39;;;;;;;5.93;4.85;;;;;;;;;;5013789;28;20037;-40
2022/05/16 13:42:05;;;;;;;7.13;4.60;;;;;;;;;;5031781;28;20373;-40
2022/05/16 13:44:41;;;;;;;4.22;2.90;;;;;;;;;;5031568;28;20113;-40
2022/05/16 13:47:12;;;;;;;4.95;2.80;;;;;;;;;;5031421;28;20055;-40
2022/05/16 13:49:40;;;;;;;5.85;3.17;;;;;;;;;;5031543;28;20036;-41
2022/05/16 13:52:16;;;;;;;5.30;3.05;;;;;;;;;;5031624;28;20036;-41
2022/05/16 13:54:42;;;;;;;4.50;2.85;;;;;;;;;;5031651;28;20060;-41
2022/05/16 13:57:09;;;;;;;8.52;3.30;;;;;;;;;;5014265;28;20037;-44
2022/05/16 13:59:37;;;;;;;2.65;2.45;;;;;;;;;;5031277;28;20022;-40
2022/05/16 14:02:13;;;;;;;3.13;2.42;;;;;;;;;;5031006;28;20044;-42
2022/05/16 14:04:46;;;;;;;3.15;2.40;;;;;;;;;;5014153;28;20080;-41
2022/05/16 14:07:34;;;;;;;4.00;2.60;;;;;;;;;;5031301;28;20044;-41
2022/05/16 14:10:06;;;;;;;2.35;2.08;;;;;;;;;;5031233;28;20033;-41
2022/05/16 14:12:34;;;;;;;4.70;2.70;;;;;;;;;;5031128;28;20037;-41
2022/05/16 14:15:04;;;;;;;3.70;2.20;;;;;;;;;;5031155;28;20116;-45
2022/05/16 14:17:40;;;;;;;3.55;2.08;;;;;;;;;;5031333;28;20057;-46
2022/05/16 14:20:19;;;;;;;30.58;3.55;;;;;;;;;;5030977;28;20044;-47
2022/05/16 14:22:48;;;;;;;4.72;2.60;;;;;;;;;;5031262;28;20087;-51
2022/05/16 14:25:38;;;;;;;2.55;2.33;;;;;;;;;;5030778;28;20086;-52
2022/05/16 14:28:15;;;;;;;4.25;2.08;;;;;;;;;;5019598;28;20108;-54
2022/05/16 14:30:52;;;;;;;3.67;2.78;;;;;;;;;;5030645;28;20022;-47
2022/05/16 14:33:18;;;;;;;4.95;2.72;;;;;;;;;;5031159;28;20056;-49
2022/05/16 14:35:56;;;;;;;2.70;2.40;;;;;;;;;;5031086;28;20057;-56
2022/05/16 14:38:22;;;;;;;7.50;4.40;;;;;;;;;;5031108;28;20033;-47
2022/05/16 14:40:49;;;;;;;7.25;5.22;;;;;;;;;;5030731;28;20033;-57
2022/05/16 14:44:06;;;;;;;10.98;5.75;;;;;;;;;;5030912;28;20057;-49
2022/05/16 14:46:45;;;;;;;5.28;4.40;;;;;;;;;;4996945;28;20044;-49
2022/05/16 14:49:15;;;;;;;7.03;3.47;;;;;;;;;;5040911;28;20033;-57
2022/05/16 14:51:45;;;;;;;7.22;2.67;;;;;;;;;;5039873;28;20203;-47
2022/05/16 14:54:21;;;;;;;2.40;2.20;;;;;;;;;;5044712;28;20060;-46
2022/05/16 14:56:47;;;;;;;4.32;2.72;;;;;;;;;;5050949;28;20108;-45
2022/05/16 14:59:13;;;;;;;2.80;2.22;;;;;;;;;;5050503;28;20115;-47
2022/05/16 15:04:23;;;;;;;7.50;4.00;;;;;;;;;;5050824;28;20043;-47
2022/05/16 15:06:49;;;;;;;4.95;2.75;;;;;;;;;;5048987;28;20451;-47
2022/05/16 15:09:17;;;;;;;12.68;8.20;;;;;;;;;;5050016;28;20029;-45
2022/05/16 15:12:11;;;;;;;13.95;9.48;;;;;;;;;;5038825;28;20043;-49
2022/05/16 15:14:37;;;;;;;7.90;6.20;;;;;;;;;;5037962;28;20123;-50
2022/05/16 15:17:06;;;;;;;3.95;2.90;;;;;;;;;;5038516;28;20053;-47
2022/05/16 15:19:32;;;;;;;5.88;2.40;;;;;;;;;;5040581;28;20403;-51
2022/05/16 15:21:58;;;;;;;7.32;5.95;;;;;;;;;;5040529;28;20036;-45
2022/05/16 15:24:35;;;;;;;8.80;5.40;;;;;;;;;;5038994;28;20044;-46
2022/05/16 15:27:02;;;;;;;10.65;6.97;;;;;;;;;;5041563;28;20044;-48
2022/05/16 15:29:28;;;;;;;12.45;9.10;;;;;;;;;;5038788;28;20018;-47
2022/05/16 15:31:54;;;;;;;13.63;9.32;;;;;;;;;;5041452;28;20017;-54
2022/05/16 15:34:19;;;;;;;9.52;6.90;;;;;;;;;;5046664;28;20029;-47
2022/05/16 15:36:45;;;;;;;9.48;4.82;;;;;;;;;;5038996;28;20408;-47
2022/05/16 15:39:19;;;;;;;2.65;2.40;;;;;;;;;;5036923;28;20032;-48
2022/05/16 15:41:44;;;;;;;2.55;2.03;;;;;;;;;;5030178;28;20036;-49
2022/05/16 15:44:10;;;;;;;3.25;2.40;;;;;;;;;;5033936;28;20116;-48